Aviation Digital Data Service (ADDS)

Output produced by METARs form (0520 UTC 02 July 2015)
found at http://www.aviationweather.gov/adds/metars/
 
SEGU 020500Z 21006KT 9999 FEW030 24/21 Q1008 NOSIG RMK A2979
TAF SEGU 020415Z 0206/0306 22007KT 9999 SCT020 SCT090 
     TEMPO 0206/0209 CAVOK 
     FM021700 16006KT 9999 FEW026 SCT100 
     FM030000 22010KT CAVOK TX32/0220Z TN23/0210Z
       
SEMT 020500Z 16006KT 9999 BKN023 25/23 Q1009 RMK A2982
SEMT 020415Z 0206/0306 19008KT 9999 SCT030 
     BECMG 0217/0220 27010KT 
     BECMG 0301/0303 18012KT TX32/0220Z TN23/0210Z